Time;durP1;ratioP1;P1;durP2;ratioP2;P2;SDS_P1;SDS_P2;PMS_P1;PMS_P2;Temp;Humidity;BMP_temperature;BMP_pressure;BME280_temperature;BME280_humidity;BME280_pressure;Samples;Min_cycle;Max_cycle;Signal;HPM_P1;HPM_P2
2022/07/02 00:02:02;;;;;;;2.20;2.10;;;24.00;99.90;;;;;;5103325;28;20303;-58
2022/07/02 00:04:32;;;;;;;2.40;2.20;;;23.90;99.90;;;;;;5111280;28;20622;-60
2022/07/02 00:07:00;;;;;;;2.17;1.90;;;23.90;99.90;;;;;;5103516;28;20278;-60
2022/07/02 00:09:27;;;;;;;1.90;1.80;;;23.80;99.90;;;;;;5110671;28;20208;-59
2022/07/02 00:11:57;;;;;;;2.00;1.90;;;23.80;99.90;;;;;;5110292;28;20585;-59
2022/07/02 00:14:25;;;;;;;2.05;1.85;;;23.80;99.90;;;;;;5111310;28;20199;-58
2022/07/02 00:16:54;;;;;;;1.98;1.88;;;23.70;99.90;;;;;;5109742;28;20713;-58
2022/07/02 00:19:22;;;;;;;1.77;1.67;;;23.70;99.90;;;;;;5110550;28;20231;-59
2022/07/02 00:21:51;;;;;;;1.77;1.67;;;23.70;99.90;;;;;;5109356;28;20226;-58
2022/07/02 00:24:18;;;;;;;1.95;1.85;;;23.60;99.90;;;;;;5110287;28;20253;-58
2022/07/02 00:26:53;;;;;;;2.00;1.90;;;23.60;99.90;;;;;;5109591;28;20233;-58
2022/07/02 00:29:25;;;;;;;2.28;2.08;;;23.50;99.90;;;;;;5110764;28;20714;-58
2022/07/02 00:31:52;;;;;;;1.55;1.45;;;23.50;99.90;;;;;;5109959;28;20219;-58
2022/07/02 00:34:21;;;;;;;1.73;1.63;;;23.50;99.90;;;;;;5110837;28;20612;-59
2022/07/02 00:36:50;;;;;;;1.80;1.70;;;23.50;99.90;;;;;;5096879;28;20192;-59
2022/07/02 00:39:18;;;;;;;1.60;1.50;;;23.50;99.90;;;;;;5103086;28;20219;-59
2022/07/02 00:41:46;;;;;;;1.73;1.60;;;23.50;99.90;;;;;;5109772;28;20203;-58
2022/07/02 00:44:15;;;;;;;1.73;1.63;;;23.50;99.90;;;;;;5109930;28;20192;-59
2022/07/02 00:46:43;;;;;;;1.92;1.83;;;23.60;99.90;;;;;;5109500;28;20274;-60
2022/07/02 00:49:10;;;;;;;1.45;1.45;;;23.50;99.90;;;;;;5110680;28;20283;-59
2022/07/02 00:51:37;;;;;;;1.90;1.80;;;23.50;99.90;;;;;;5110043;28;20217;-61
2022/07/02 00:54:06;;;;;;;1.42;1.42;;;23.50;99.90;;;;;;5101143;28;20232;-61
2022/07/02 00:56:33;;;;;;;1.25;1.25;;;23.50;99.90;;;;;;5108427;28;20232;-59
2022/07/02 00:59:03;;;;;;;1.48;1.40;;;23.50;99.90;;;;;;5109621;28;20295;-58
2022/07/02 01:01:30;;;;;;;1.60;1.50;;;23.50;99.90;;;;;;5110131;28;20287;-58
2022/07/02 01:04:00;;;;;;;1.55;1.45;;;23.50;99.90;;;;;;5109560;28;20344;-58
2022/07/02 01:06:30;;;;;;;1.45;1.35;;;23.50;99.90;;;;;;5095896;28;20356;-59
2022/07/02 01:11:48;;;;;;;1.30;1.30;;;23.50;99.90;;;;;;5108825;28;20198;-59
2022/07/02 01:14:18;;;;;;;1.85;1.75;;;23.50;99.90;;;;;;5109708;28;20245;-59
2022/07/02 01:16:45;;;;;;;1.45;1.42;;;23.50;99.90;;;;;;5109098;28;20208;-59
2022/07/02 01:19:16;;;;;;;1.35;1.35;;;23.50;99.90;;;;;;5110189;28;20343;-59
2022/07/02 01:22:15;;;;;;;1.60;1.50;;;23.50;99.90;;;;;;5103171;28;20670;-59
2022/07/02 01:24:43;;;;;;;1.42;1.33;;;23.50;99.90;;;;;;5100163;28;20706;-59
2022/07/02 01:27:11;;;;;;;1.27;1.27;;;23.50;99.90;;;;;;5108495;28;20231;-59
2022/07/02 01:29:38;;;;;;;1.05;1.05;;;23.50;99.90;;;;;;5109983;28;20223;-60
2022/07/02 01:32:06;;;;;;;1.30;1.30;;;23.50;99.90;;;;;;5104980;28;20294;-58
2022/07/02 01:34:38;;;;;;;1.17;1.17;;;23.50;99.90;;;;;;5109677;28;20674;-59
2022/07/02 01:37:07;;;;;;;1.75;1.65;;;23.50;99.90;;;;;;5107900;28;20233;-59
2022/07/02 01:39:36;;;;;;;1.42;1.42;;;23.40;99.90;;;;;;5106826;28;20204;-59
2022/07/02 01:42:04;;;;;;;1.33;1.33;;;23.40;99.90;;;;;;5109237;28;20223;-59
2022/07/02 01:44:32;;;;;;;1.45;1.35;;;23.40;99.90;;;;;;5109218;28;20195;-59
2022/07/02 01:46:59;;;;;;;1.67;1.58;;;23.40;99.90;;;;;;5106595;28;20196;-58
2022/07/02 01:49:26;;;;;;;1.40;1.40;;;23.40;99.90;;;;;;5110011;28;20304;-59
2022/07/02 01:51:53;;;;;;;1.27;1.27;;;23.40;99.90;;;;;;5109085;28;20313;-59
2022/07/02 01:54:20;;;;;;;1.30;1.30;;;23.40;99.90;;;;;;5105996;28;20678;-59
2022/07/02 01:56:48;;;;;;;1.60;1.50;;;23.40;99.90;;;;;;5109137;28;20228;-59
2022/07/02 01:59:16;;;;;;;1.50;1.50;;;23.40;99.90;;;;;;5109109;28;20744;-59
2022/07/02 02:01:44;;;;;;;1.45;1.42;;;23.30;99.90;;;;;;5103079;28;20261;-59
2022/07/02 02:04:11;;;;;;;1.13;1.13;;;23.30;99.90;;;;;;5110713;28;20254;-59
2022/07/02 02:06:38;;;;;;;1.50;1.40;;;23.30;99.90;;;;;;5097891;28;20517;-59
2022/07/02 02:09:06;;;;;;;1.50;1.40;;;23.30;99.90;;;;;;5112590;28;20203;-59
2022/07/02 02:11:33;;;;;;;1.20;1.20;;;23.30;99.90;;;;;;5112917;28;20589;-59
2022/07/02 02:14:01;;;;;;;1.20;1.20;;;23.30;99.90;;;;;;5112182;28;20188;-59
2022/07/02 02:16:30;;;;;;;1.30;1.30;;;23.30;99.90;;;;;;5112502;28;20200;-59
2022/07/02 02:18:58;;;;;;;1.35;1.20;;;23.30;99.90;;;;;;5112572;28;20203;-59
2022/07/02 02:21:27;;;;;;;1.13;1.13;;;23.30;99.90;;;;;;5110126;28;20249;-60
2022/07/02 02:23:55;;;;;;;1.08;1.08;;;23.40;99.90;;;;;;5111994;28;20195;-58
2022/07/02 02:26:22;;;;;;;1.55;1.27;;;23.40;99.90;;;;;;5113047;28;20198;-58
2022/07/02 02:28:49;;;;;;;1.10;1.10;;;23.40;99.90;;;;;;5111867;28;20838;-58
2022/07/02 02:31:18;;;;;;;1.17;1.10;;;23.40;99.90;;;;;;5112434;28;20203;-57
2022/07/02 02:33:45;;;;;;;1.30;1.30;;;23.30;99.90;;;;;;5112368;28;20279;-58
2022/07/02 02:36:12;;;;;;;1.60;1.50;;;23.30;99.90;;;;;;5102498;28;20195;-57
2022/07/02 02:38:39;;;;;;;1.65;1.55;;;23.30;99.90;;;;;;5101795;28;20639;-58
2022/07/02 02:41:07;;;;;;;1.80;1.70;;;23.30;99.90;;;;;;5112073;28;20743;-57
2022/07/02 02:43:34;;;;;;;2.00;1.90;;;23.30;99.90;;;;;;5094386;28;20219;-57
2022/07/02 02:46:01;;;;;;;1.65;1.55;;;23.20;99.90;;;;;;5105697;28;20554;-57
2022/07/02 02:48:30;;;;;;;1.90;1.80;;;23.20;99.90;;;;;;5098881;28;20662;-58
2022/07/02 02:50:58;;;;;;;1.60;1.50;;;23.20;99.90;;;;;;5111266;28;20620;-58
2022/07/02 02:53:25;;;;;;;1.75;1.65;;;23.20;99.90;;;;;;5111605;28;20287;-58
2022/07/02 02:55:52;;;;;;;1.83;1.70;;;23.20;99.90;;;;;;5109666;28;20324;-58
2022/07/02 02:58:19;;;;;;;1.88;1.77;;;23.20;99.90;;;;;;5111128;28;20264;-58
2022/07/02 03:00:46;;;;;;;2.47;1.85;;;23.30;99.90;;;;;;5111470;28;20218;-58
2022/07/02 03:03:13;;;;;;;2.65;2.00;;;23.30;99.90;;;;;;5098295;28;20204;-58
2022/07/02 03:05:41;;;;;;;1.75;1.65;;;23.30;99.90;;;;;;5110754;28;20654;-58
2022/07/02 03:08:09;;;;;;;1.70;1.60;;;23.30;99.90;;;;;;5108931;28;20264;-58
2022/07/02 03:10:36;;;;;;;1.52;1.42;;;23.40;99.90;;;;;;5112118;28;20654;-58
2022/07/02 03:13:03;;;;;;;1.77;1.67;;;23.40;99.90;;;;;;5110143;28;20279;-58
2022/07/02 03:15:30;;;;;;;1.70;1.60;;;23.40;99.90;;;;;;5110922;28;20196;-58
2022/07/02 03:17:57;;;;;;;1.60;1.50;;;23.40;99.90;;;;;;5111597;28;20227;-58
2022/07/02 03:20:24;;;;;;;2.50;2.30;;;23.40;99.90;;;;;;5093557;28;20224;-58
2022/07/02 03:22:52;;;;;;;1.98;1.88;;;23.40;99.90;;;;;;5110420;28;20295;-58
2022/07/02 03:25:19;;;;;;;1.88;1.77;;;23.40;99.90;;;;;;5107227;28;20702;-58
2022/07/02 03:27:46;;;;;;;1.83;1.73;;;23.40;99.90;;;;;;5111244;28;20199;-58
2022/07/02 03:30:14;;;;;;;2.15;1.80;;;23.40;99.90;;;;;;5111730;28;20223;-58
2022/07/02 03:32:41;;;;;;;1.77;1.67;;;23.30;99.90;;;;;;5109410;28;20208;-57
2022/07/02 03:35:08;;;;;;;4.20;2.28;;;23.30;99.90;;;;;;5112021;28;20196;-57
2022/07/02 03:37:35;;;;;;;2.38;2.00;;;23.30;99.90;;;;;;5110426;28;20202;-57
2022/07/02 03:40:05;;;;;;;2.05;1.88;;;23.30;99.90;;;;;;5111609;28;20208;-58
2022/07/02 03:42:32;;;;;;;1.77;1.67;;;23.30;99.90;;;;;;5110680;28;20188;-58
2022/07/02 03:44:59;;;;;;;1.45;1.42;;;23.30;99.90;;;;;;5111171;28;20580;-58
2022/07/02 03:47:26;;;;;;;1.15;1.05;;;23.30;99.90;;;;;;5105284;28;20219;-58
2022/07/02 03:49:53;;;;;;;1.05;1.05;;;23.20;99.90;;;;;;5106791;28;20187;-58
2022/07/02 03:52:20;;;;;;;1.02;1.00;;;23.10;99.90;;;;;;5097798;28;20250;-59
2022/07/02 03:54:47;;;;;;;0.80;0.80;;;23.10;99.90;;;;;;5110689;28;20196;-58
2022/07/02 03:57:15;;;;;;;0.52;0.52;;;23.10;99.90;;;;;;5108631;28;20560;-59
2022/07/02 03:59:42;;;;;;;0.70;0.70;;;23.00;99.90;;;;;;5111004;28;20211;-57
2022/07/02 04:02:09;;;;;;;0.50;0.50;;;23.00;99.90;;;;;;5109877;28;20207;-59
2022/07/02 04:04:36;;;;;;;0.50;0.50;;;22.90;99.90;;;;;;5100157;28;20270;-59
2022/07/02 04:07:04;;;;;;;0.60;0.60;;;22.90;99.90;;;;;;5106749;28;20203;-60
2022/07/02 04:09:31;;;;;;;0.40;0.40;;;22.90;99.90;;;;;;5110635;28;20196;-60
2022/07/02 04:11:58;;;;;;;0.50;0.50;;;22.80;99.90;;;;;;5109407;28;20609;-60
2022/07/02 04:14:26;;;;;;;0.50;0.50;;;22.80;99.90;;;;;;5110472;28;20291;-60
2022/07/02 04:16:53;;;;;;;0.40;0.40;;;22.80;99.90;;;;;;5109734;28;20196;-60
2022/07/02 04:19:20;;;;;;;0.43;0.43;;;22.80;99.90;;;;;;5099029;28;20672;-60
2022/07/02 04:21:47;;;;;;;0.45;0.45;;;22.80;99.90;;;;;;5106972;28;20253;-60
2022/07/02 04:24:14;;;;;;;0.40;0.40;;;22.80;99.90;;;;;;5110134;28;20192;-60
2022/07/02 04:26:41;;;;;;;0.40;0.40;;;22.80;99.90;;;;;;5109751;28;20253;-60
2022/07/02 04:29:08;;;;;;;0.50;0.50;;;22.80;99.90;;;;;;5110175;28;20200;-60
2022/07/02 04:31:37;;;;;;;0.38;0.38;;;22.80;99.90;;;;;;5110052;28;20203;-60
2022/07/02 04:34:04;;;;;;;0.45;0.40;;;22.70;99.90;;;;;;5110621;28;20206;-60
2022/07/02 04:36:31;;;;;;;0.40;0.38;;;22.70;99.90;;;;;;5091447;28;20201;-60
2022/07/02 04:38:58;;;;;;;0.40;0.40;;;22.70;99.90;;;;;;5110221;28;20223;-60
2022/07/02 04:41:25;;;;;;;0.30;0.30;;;22.70;99.90;;;;;;5109995;28;20216;-60
2022/07/02 04:43:52;;;;;;;0.40;0.40;;;22.60;99.90;;;;;;5108952;28;20585;-60
2022/07/02 04:46:19;;;;;;;0.40;0.40;;;22.60;99.90;;;;;;5105192;28;20276;-60
2022/07/02 04:48:48;;;;;;;0.30;0.30;;;22.60;99.90;;;;;;5099592;28;20193;-59
2022/07/02 04:51:15;;;;;;;0.30;0.30;;;22.60;99.90;;;;;;5105250;28;20274;-59
2022/07/02 04:53:42;;;;;;;0.73;0.50;;;22.60;99.90;;;;;;5109398;28;20305;-59
2022/07/02 04:56:09;;;;;;;0.32;0.32;;;22.50;99.90;;;;;;5109884;28;20350;-59
2022/07/02 04:58:36;;;;;;;0.30;0.30;;;22.40;99.90;;;;;;5108653;28;20207;-60
2022/07/02 05:01:03;;;;;;;0.32;0.32;;;22.40;99.90;;;;;;5109908;28;20559;-60
2022/07/02 05:03:31;;;;;;;0.30;0.30;;;22.40;99.90;;;;;;5095082;28;20212;-60
2022/07/02 05:06:00;;;;;;;0.40;0.40;;;22.40;99.90;;;;;;5109659;28;20239;-59
2022/07/02 05:08:27;;;;;;;1.20;0.60;;;22.30;99.90;;;;;;5108893;28;20279;-59
2022/07/02 05:10:54;;;;;;;0.60;0.60;;;22.20;99.90;;;;;;5096205;28;20212;-59
2022/07/02 05:13:22;;;;;;;0.45;0.45;;;22.10;99.90;;;;;;5093957;28;20201;-59
2022/07/02 05:15:49;;;;;;;0.75;0.50;;;22.10;99.90;;;;;;5109389;28;20227;-59
2022/07/02 05:18:16;;;;;;;0.60;0.60;;;22.00;99.90;;;;;;5108878;28;20196;-60
2022/07/02 05:20:44;;;;;;;0.60;0.60;;;21.90;99.90;;;;;;5109404;28;20208;-59
2022/07/02 05:23:12;;;;;;;1.10;0.70;;;21.90;99.90;;;;;;5106460;28;20195;-59
2022/07/02 05:25:39;;;;;;;0.75;0.75;;;21.80;99.90;;;;;;5101110;28;20648;-59
2022/07/02 05:28:06;;;;;;;0.40;0.40;;;21.80;99.90;;;;;;5104828;28;20248;-63
2022/07/02 05:30:33;;;;;;;0.47;0.47;;;21.70;99.90;;;;;;5109662;28;20196;-59
2022/07/02 05:33:00;;;;;;;2.42;0.60;;;21.70;99.90;;;;;;5109287;28;20196;-59
2022/07/02 05:35:27;;;;;;;0.50;0.50;;;21.80;99.90;;;;;;5109774;28;20244;-59
2022/07/02 05:37:54;;;;;;;0.60;0.55;;;21.70;99.90;;;;;;5109085;28;20279;-59
2022/07/02 05:40:23;;;;;;;0.47;0.47;;;21.80;99.90;;;;;;5105891;28;20220;-60
2022/07/02 05:42:50;;;;;;;1.75;0.60;;;21.80;99.90;;;;;;5111072;28;20203;-60
2022/07/02 05:45:17;;;;;;;0.60;0.60;;;21.90;99.90;;;;;;5111860;28;20650;-60
2022/07/02 05:47:44;;;;;;;0.55;0.40;;;21.90;99.90;;;;;;5111119;28;20266;-60
2022/07/02 05:50:11;;;;;;;0.57;0.57;;;21.90;99.90;;;;;;5113734;28;20192;-60
2022/07/02 05:52:39;;;;;;;2.10;0.57;;;21.90;99.90;;;;;;5111547;28;20669;-59
2022/07/02 05:55:06;;;;;;;0.50;0.50;;;21.90;99.90;;;;;;5113507;28;20311;-59
2022/07/02 05:57:35;;;;;;;0.50;0.50;;;22.00;99.90;;;;;;5108677;28;20253;-60
2022/07/02 06:00:03;;;;;;;1.33;0.75;;;22.00;99.90;;;;;;5112582;28;20193;-59
2022/07/02 06:02:31;;;;;;;0.60;0.60;;;22.00;99.90;;;;;;5112243;28;20196;-59
2022/07/02 06:04:58;;;;;;;0.50;0.50;;;22.00;99.90;;;;;;5113128;28;20196;-60
2022/07/02 06:07:39;;;;;;;0.65;0.65;;;22.00;99.90;;;;;;5111882;28;20287;-60
2022/07/02 06:10:08;;;;;;;0.82;0.55;;;22.00;99.90;;;;;;5113179;28;20179;-59
2022/07/02 06:12:36;;;;;;;1.58;0.60;;;22.00;99.90;;;;;;5112250;28;20203;-59
2022/07/02 06:15:04;;;;;;;0.55;0.55;;;22.00;99.90;;;;;;5107882;28;20192;-60
2022/07/02 06:17:31;;;;;;;0.60;0.60;;;21.90;99.90;;;;;;5108407;28;20195;-60
2022/07/02 06:19:58;;;;;;;0.40;0.40;;;21.90;99.90;;;;;;5111610;28;20223;-59
2022/07/02 06:22:26;;;;;;;0.70;0.50;;;21.80;99.90;;;;;;5111623;28;20695;-59
2022/07/02 06:24:55;;;;;;;0.52;0.52;;;21.80;99.90;;;;;;5112139;28;20196;-60
2022/07/02 06:27:22;;;;;;;0.75;0.57;;;21.80;99.90;;;;;;5101013;28;20207;-60
2022/07/02 06:29:51;;;;;;;3.28;0.70;;;21.80;99.90;;;;;;5109781;28;20570;-60
2022/07/02 06:32:19;;;;;;;0.32;0.32;;;21.80;99.90;;;;;;5102516;28;20227;-60
2022/07/02 06:34:46;;;;;;;0.85;0.75;;;21.80;99.90;;;;;;5110246;28;20286;-60
2022/07/02 06:37:13;;;;;;;1.25;0.55;;;21.80;99.90;;;;;;5111370;28;20685;-60
2022/07/02 06:39:40;;;;;;;0.88;0.57;;;21.70;99.90;;;;;;5112721;28;20273;-60
2022/07/02 06:42:23;;;;;;;0.50;0.50;;;21.70;99.90;;;;;;5110929;28;20235;-60
2022/07/02 06:44:57;;;;;;;0.57;0.57;;;21.60;99.90;;;;;;5096746;28;20196;-59
2022/07/02 06:47:25;;;;;;;0.82;0.65;;;21.60;99.90;;;;;;5093598;28;20208;-61
2022/07/02 06:49:54;;;;;;;0.60;0.60;;;21.60;99.90;;;;;;5105525;28;20202;-60
2022/07/02 06:52:21;;;;;;;0.40;0.40;;;21.60;99.90;;;;;;5099245;28;20199;-59
2022/07/02 06:54:48;;;;;;;0.52;0.52;;;21.70;99.90;;;;;;5112195;28;20196;-59
2022/07/02 06:57:15;;;;;;;0.68;0.68;;;21.70;99.90;;;;;;5111522;28;20202;-60
2022/07/02 06:59:42;;;;;;;0.70;0.70;;;21.70;99.90;;;;;;5111089;28;20186;-59
2022/07/02 07:02:10;;;;;;;0.60;0.60;;;21.70;99.90;;;;;;5111522;28;20688;-60
2022/07/02 07:04:37;;;;;;;0.38;0.38;;;21.70;99.90;;;;;;5112479;28;20278;-60
2022/07/02 07:07:06;;;;;;;1.13;0.52;;;21.80;99.90;;;;;;5111800;28;20234;-60
2022/07/02 07:09:34;;;;;;;0.43;0.43;;;21.80;99.90;;;;;;5112194;28;20207;-60
2022/07/02 07:12:04;;;;;;;0.50;0.50;;;21.80;99.90;;;;;;5111306;28;20677;-60
2022/07/02 07:14:31;;;;;;;1.27;0.55;;;21.80;99.90;;;;;;5111920;28;20278;-60
2022/07/02 07:16:58;;;;;;;0.73;0.52;;;21.70;99.90;;;;;;5110437;28;20207;-60
2022/07/02 07:19:27;;;;;;;0.52;0.52;;;21.70;99.90;;;;;;5111654;28;20585;-61
2022/07/02 07:21:54;;;;;;;0.55;0.55;;;21.70;99.90;;;;;;5110875;28;20273;-61
2022/07/02 07:24:21;;;;;;;0.55;0.55;;;21.70;99.90;;;;;;5111213;28;20563;-61
2022/07/02 07:26:48;;;;;;;0.82;0.47;;;21.60;99.90;;;;;;5110711;28;20231;-61
2022/07/02 07:29:15;;;;;;;0.40;0.40;;;21.60;99.90;;;;;;5111532;28;20291;-60
2022/07/02 07:31:42;;;;;;;0.50;0.50;;;21.60;99.90;;;;;;5099856;28;20189;-60
2022/07/02 07:34:10;;;;;;;0.55;0.55;;;21.60;99.90;;;;;;5103543;28;20230;-60
2022/07/02 07:36:38;;;;;;;0.50;0.50;;;21.60;99.90;;;;;;5110819;28;20227;-61
2022/07/02 07:39:06;;;;;;;0.43;0.43;;;21.60;99.90;;;;;;5110383;28;20601;-61
2022/07/02 07:41:33;;;;;;;0.50;0.50;;;21.70;99.90;;;;;;5110920;28;20223;-61
2022/07/02 07:44:01;;;;;;;0.30;0.30;;;21.70;99.90;;;;;;5109807;28;20290;-61
2022/07/02 07:46:28;;;;;;;0.43;0.43;;;21.70;99.90;;;;;;5107499;28;20192;-61
2022/07/02 07:48:56;;;;;;;0.43;0.43;;;21.70;99.90;;;;;;5109862;28;20203;-61
2022/07/02 07:51:23;;;;;;;0.40;0.40;;;21.70;99.90;;;;;;5110382;28;20226;-61
2022/07/02 07:53:51;;;;;;;0.70;0.70;;;21.80;99.90;;;;;;5110317;28;20643;-60
2022/07/02 07:56:19;;;;;;;0.47;0.47;;;21.80;99.90;;;;;;5089293;28;20607;-60
2022/07/02 07:58:46;;;;;;;0.60;0.60;;;21.80;99.90;;;;;;5104887;28;20196;-60
2022/07/02 08:01:13;;;;;;;1.08;0.55;;;21.80;99.90;;;;;;5109966;28;20219;-60
2022/07/02 08:03:40;;;;;;;0.65;0.60;;;21.80;99.90;;;;;;5110079;28;20195;-59
2022/07/02 08:06:08;;;;;;;0.88;0.52;;;21.80;99.90;;;;;;5109380;28;20555;-60
2022/07/02 08:08:35;;;;;;;0.50;0.50;;;21.80;99.90;;;;;;5109849;28;20245;-60
2022/07/02 08:11:04;;;;;;;1.00;0.60;;;21.80;99.90;;;;;;5110579;28;20625;-60
2022/07/02 08:13:31;;;;;;;0.40;0.40;;;21.90;99.90;;;;;;5092299;28;20635;-60
2022/07/02 08:15:59;;;;;;;0.50;0.50;;;21.90;99.90;;;;;;5110474;28;20192;-60
2022/07/02 08:18:26;;;;;;;0.50;0.50;;;21.80;99.90;;;;;;5108765;28;20207;-61
2022/07/02 08:20:53;;;;;;;0.50;0.50;;;21.80;99.90;;;;;;5110170;28;20241;-60
2022/07/02 08:23:21;;;;;;;0.70;0.65;;;21.80;99.90;;;;;;5109468;28;20207;-58
2022/07/02 08:25:48;;;;;;;0.63;0.63;;;21.90;99.90;;;;;;5107312;28;20237;-58
2022/07/02 08:28:17;;;;;;;0.60;0.60;;;21.90;99.90;;;;;;5109073;28;20199;-59
2022/07/02 08:30:44;;;;;;;0.60;0.60;;;22.00;99.90;;;;;;5101653;28;20199;-59
2022/07/02 08:33:12;;;;;;;1.63;0.63;;;22.00;99.90;;;;;;5109683;28;20261;-59
2022/07/02 08:35:39;;;;;;;0.45;0.45;;;22.10;99.90;;;;;;5110256;28;20847;-57
2022/07/02 08:38:06;;;;;;;0.68;0.68;;;22.20;99.90;;;;;;5107633;28;20195;-58
2022/07/02 08:40:33;;;;;;;0.80;0.80;;;22.20;99.90;;;;;;5109783;28;20219;-60
2022/07/02 08:43:01;;;;;;;0.60;0.60;;;22.30;99.90;;;;;;5108384;28;20713;-60
2022/07/02 08:45:33;;;;;;;0.52;0.52;;;22.50;99.90;;;;;;5107288;28;20239;-60
2022/07/02 08:48:00;;;;;;;0.55;0.55;;;22.50;99.90;;;;;;5102947;28;20204;-59
2022/07/02 08:50:27;;;;;;;0.60;0.60;;;22.60;99.90;;;;;;5103727;28;20196;-60
2022/07/02 08:52:55;;;;;;;0.50;0.50;;;22.80;99.90;;;;;;5105214;28;20287;-60
2022/07/02 08:55:23;;;;;;;0.57;0.57;;;22.90;99.90;;;;;;5110117;28;20349;-59
2022/07/02 08:57:52;;;;;;;0.47;0.47;;;23.10;99.90;;;;;;5088468;28;20287;-58
2022/07/02 09:00:22;;;;;;;0.80;0.60;;;23.20;99.90;;;;;;5103513;28;20199;-59
2022/07/02 09:02:53;;;;;;;0.70;0.70;;;23.30;99.90;;;;;;5109359;28;20548;-59
2022/07/02 09:05:21;;;;;;;0.70;0.70;;;23.40;99.90;;;;;;5110236;28;20195;-59
2022/07/02 09:07:49;;;;;;;0.65;0.65;;;23.50;99.90;;;;;;5108707;28;20192;-60
2022/07/02 09:10:17;;;;;;;0.60;0.60;;;23.50;99.90;;;;;;5110347;28;20269;-60
2022/07/02 09:12:46;;;;;;;0.60;0.60;;;23.60;99.90;;;;;;5111010;28;20242;-60
2022/07/02 09:15:14;;;;;;;0.95;0.75;;;23.60;99.90;;;;;;5113643;28;20239;-59
2022/07/02 09:17:43;;;;;;;1.00;0.88;;;23.70;99.90;;;;;;5113869;28;20324;-60
2022/07/02 09:20:12;;;;;;;0.88;0.80;;;23.80;99.90;;;;;;5114459;28;20569;-59
2022/07/02 09:22:42;;;;;;;0.63;0.63;;;23.90;99.90;;;;;;5112969;28;20231;-59
2022/07/02 09:25:12;;;;;;;0.65;0.65;;;24.00;99.90;;;;;;5112951;28;20201;-59
2022/07/02 09:27:40;;;;;;;0.80;0.80;;;24.00;99.90;;;;;;5104020;28;20200;-59
2022/07/02 09:30:09;;;;;;;0.95;0.90;;;24.10;99.90;;;;;;5110371;28;20207;-59
2022/07/02 09:32:44;;;;;;;1.05;0.80;;;24.10;99.90;;;;;;5112117;28;20204;-59
2022/07/02 09:35:21;;;;;;;0.68;0.68;;;24.00;99.90;;;;;;5112358;28;20191;-59
2022/07/02 09:37:48;;;;;;;0.70;0.70;;;24.00;99.90;;;;;;5111819;28;20261;-59
2022/07/02 09:40:16;;;;;;;0.60;0.60;;;24.10;99.90;;;;;;5112278;28;20200;-59
2022/07/02 09:42:47;;;;;;;1.42;0.82;;;24.10;99.90;;;;;;5112363;28;20212;-59
2022/07/02 09:45:15;;;;;;;1.30;0.90;;;24.20;99.90;;;;;;5110353;28;20287;-59
2022/07/02 09:47:48;;;;;;;1.15;1.10;;;24.20;99.90;;;;;;5108339;28;20192;-59
2022/07/02 09:50:16;;;;;;;0.90;0.90;;;24.20;99.90;;;;;;5112542;28;20241;-59
2022/07/02 09:52:52;;;;;;;0.73;0.73;;;24.20;99.90;;;;;;5112174;28;20520;-59
2022/07/02 09:55:22;;;;;;;1.67;0.93;;;24.20;99.70;;;;;;5113475;28;20235;-60
2022/07/02 09:57:53;;;;;;;0.90;0.90;;;24.30;99.50;;;;;;5111202;28;20298;-59
2022/07/02 10:00:21;;;;;;;0.63;0.55;;;24.30;99.30;;;;;;5112400;28;20195;-59
2022/07/02 10:02:51;;;;;;;0.73;0.73;;;24.40;99.10;;;;;;5110308;28;20225;-59
2022/07/02 10:05:24;;;;;;;1.58;0.77;;;24.50;99.00;;;;;;5112914;28;20202;-59
2022/07/02 10:07:53;;;;;;;0.77;0.77;;;24.50;98.50;;;;;;5111750;28;20197;-60
2022/07/02 10:10:28;;;;;;;1.05;0.85;;;24.60;98.40;;;;;;5113351;28;20647;-60
2022/07/02 10:12:57;;;;;;;2.20;0.90;;;24.70;98.00;;;;;;5112416;28;20202;-59
2022/07/02 10:15:30;;;;;;;1.00;0.95;;;24.70;97.60;;;;;;5110549;28;20204;-60
2022/07/02 10:17:58;;;;;;;0.68;0.68;;;24.80;97.50;;;;;;5111773;28;20202;-60
2022/07/02 10:20:25;;;;;;;0.80;0.80;;;24.90;97.40;;;;;;5103874;28;20271;-61
2022/07/02 10:22:53;;;;;;;0.73;0.73;;;25.00;97.30;;;;;;5108385;28;20232;-60
2022/07/02 10:25:21;;;;;;;1.10;1.08;;;25.00;96.90;;;;;;5108927;28;20203;-60
2022/07/02 10:27:48;;;;;;;1.65;0.98;;;25.10;96.60;;;;;;5096589;28;20207;-59
2022/07/02 10:30:17;;;;;;;0.98;0.80;;;25.20;95.20;;;;;;5112074;28;20278;-59
2022/07/02 10:33:02;;;;;;;0.70;0.70;;;25.20;94.60;;;;;;5102780;28;20188;-60
2022/07/02 10:35:31;;;;;;;1.02;0.73;;;25.20;94.50;;;;;;5111749;28;20222;-60
2022/07/02 10:38:01;;;;;;;0.52;0.52;;;25.30;94.30;;;;;;5109324;28;20302;-60
2022/07/02 10:40:29;;;;;;;0.85;0.70;;;25.40;94.10;;;;;;5104250;28;20223;-60
2022/07/02 10:42:59;;;;;;;0.77;0.77;;;25.40;94.10;;;;;;5104468;28;20286;-60
2022/07/02 10:45:27;;;;;;;1.92;0.80;;;25.50;94.20;;;;;;5098655;28;20193;-60
2022/07/02 10:47:57;;;;;;;0.90;0.90;;;25.50;93.90;;;;;;5108724;28;20184;-60
2022/07/02 10:50:39;;;;;;;2.17;0.80;;;25.60;93.70;;;;;;5102343;28;20196;-60
2022/07/02 10:53:13;;;;;;;0.73;0.73;;;25.60;93.50;;;;;;5098823;28;20220;-60
2022/07/02 10:55:42;;;;;;;0.77;0.50;;;25.70;93.30;;;;;;5106409;28;20350;-60
2022/07/02 10:58:19;;;;;;;0.68;0.68;;;25.70;93.10;;;;;;5110906;28;20248;-61
2022/07/02 11:00:46;;;;;;;2.38;0.57;;;25.70;93.00;;;;;;5108634;27;20192;-60
2022/07/02 11:03:16;;;;;;;0.43;0.43;;;25.70;93.00;;;;;;5101919;28;20224;-60
2022/07/02 11:05:53;;;;;;;0.60;0.60;;;25.80;92.70;;;;;;5110909;28;20199;-60
2022/07/02 11:08:47;;;;;;;0.85;0.80;;;25.80;91.90;;;;;;5099801;28;20223;-60
2022/07/02 11:11:19;;;;;;;0.60;0.60;;;25.80;91.40;;;;;;5101696;28;20670;-60
2022/07/02 11:13:50;;;;;;;0.80;0.80;;;25.80;91.40;;;;;;5104588;28;20593;-60
2022/07/02 11:16:23;;;;;;;2.08;0.80;;;25.70;91.20;;;;;;5102397;28;20555;-60
2022/07/02 11:18:51;;;;;;;0.93;0.60;;;25.70;91.20;;;;;;5110587;28;20582;-60
2022/07/02 11:21:19;;;;;;;1.95;0.85;;;25.70;91.40;;;;;;5099584;28;20196;-60
2022/07/02 11:23:48;;;;;;;0.68;0.68;;;25.80;91.40;;;;;;5102027;28;20566;-60
2022/07/02 11:26:20;;;;;;;1.02;0.60;;;25.90;91.30;;;;;;5107175;28;20188;-60
2022/07/02 11:28:47;;;;;;;0.80;0.80;;;25.90;90.30;;;;;;5097304;28;20192;-60
2022/07/02 11:31:15;;;;;;;0.95;0.65;;;25.90;90.50;;;;;;5111327;28;20584;-60
2022/07/02 11:33:47;;;;;;;0.75;0.75;;;25.90;90.30;;;;;;5110063;28;20253;-60
2022/07/02 11:36:14;;;;;;;0.80;0.80;;;26.00;90.00;;;;;;5106589;28;20245;-60
2022/07/02 11:38:43;;;;;;;0.50;0.50;;;25.90;89.30;;;;;;5109696;28;20206;-60
2022/07/02 11:41:20;;;;;;;0.70;0.70;;;25.80;89.00;;;;;;5110646;28;20234;-60
2022/07/02 11:43:48;;;;;;;2.60;0.82;;;25.80;89.10;;;;;;5109946;28;20631;-60
2022/07/02 11:46:18;;;;;;;1.23;0.73;;;25.80;89.00;;;;;;5108588;28;20554;-60
2022/07/02 11:48:46;;;;;;;0.77;0.77;;;25.90;89.30;;;;;;5100168;28;20234;-60
2022/07/02 11:51:13;;;;;;;2.45;0.60;;;26.00;89.30;;;;;;5103693;28;20192;-60
2022/07/02 11:53:40;;;;;;;0.60;0.60;;;26.10;89.00;;;;;;5104477;28;20215;-60
2022/07/02 11:56:10;;;;;;;0.75;0.70;;;26.20;88.80;;;;;;5100169;28;20224;-60
2022/07/02 11:58:46;;;;;;;1.33;0.90;;;26.20;88.50;;;;;;5102246;28;20205;-61
2022/07/02 12:01:20;;;;;;;1.60;1.00;;;26.20;86.40;;;;;;5106882;28;20184;-60
2022/07/02 12:03:49;;;;;;;0.88;0.88;;;26.20;86.30;;;;;;5105320;28;20263;-60
2022/07/02 12:06:16;;;;;;;1.00;0.85;;;26.20;86.70;;;;;;5107050;28;20293;-60
2022/07/02 12:08:44;;;;;;;3.17;0.80;;;26.20;86.40;;;;;;5109642;28;20191;-60
2022/07/02 12:11:15;;;;;;;3.17;0.80;;;26.10;86.00;;;;;;5109882;28;20200;-60
2022/07/02 12:13:44;;;;;;;1.25;0.90;;;26.10;85.00;;;;;;5109096;28;20271;-60
2022/07/02 12:16:13;;;;;;;0.73;0.70;;;26.10;84.10;;;;;;5108800;28;20250;-60
2022/07/02 12:18:41;;;;;;;1.77;0.60;;;26.20;83.80;;;;;;5102175;28;20206;-60
2022/07/02 12:21:12;;;;;;;15.98;0.90;;;26.30;83.20;;;;;;5109174;28;20329;-59
2022/07/02 12:23:44;;;;;;;1.77;0.77;;;26.30;81.40;;;;;;5107567;28;20527;-60
2022/07/02 12:26:11;;;;;;;1.58;0.75;;;26.40;80.40;;;;;;5107478;28;20226;-60
2022/07/02 12:31:24;;;;;;;0.98;0.63;;;26.30;78.00;;;;;;5102344;28;20199;-60
2022/07/02 12:33:56;;;;;;;2.05;1.10;;;26.20;77.80;;;;;;5108860;28;20268;-60
2022/07/02 12:36:23;;;;;;;0.70;0.70;;;26.10;78.40;;;;;;5109832;28;20204;-60
2022/07/02 12:38:50;;;;;;;1.35;0.80;;;26.10;79.20;;;;;;5109117;28;20252;-60
2022/07/02 12:41:17;;;;;;;0.80;0.70;;;26.20;79.70;;;;;;5106670;28;20221;-60
2022/07/02 12:43:54;;;;;;;1.58;0.90;;;26.20;80.00;;;;;;5108296;28;20299;-60
2022/07/02 12:46:21;;;;;;;0.73;0.73;;;26.20;78.00;;;;;;5102563;28;20209;-60
2022/07/02 12:48:49;;;;;;;1.05;0.90;;;26.30;78.70;;;;;;5104165;28;20643;-60
2022/07/02 12:51:16;;;;;;;0.70;0.70;;;26.30;77.60;;;;;;5103302;28;20196;-60
2022/07/02 12:53:43;;;;;;;0.60;0.60;;;26.30;77.60;;;;;;5102403;28;20281;-60
2022/07/02 12:56:11;;;;;;;1.80;0.98;;;26.30;77.50;;;;;;5097242;28;20224;-60
2022/07/02 12:58:39;;;;;;;1.50;1.40;;;26.30;77.50;;;;;;5093850;28;20208;-60
2022/07/02 13:01:06;;;;;;;1.10;1.00;;;26.30;76.90;;;;;;5091458;28;20292;-60